This is the latest recevied weather packets stored in our database for station/object NI2O. If no packets are shown the sender has not sent any weather packets the latest 10 day(s).
| Time | Temp. | Humidity | Pressure | Rain* | Wind** | Luminosity | Snow |
|---|---|---|---|---|---|---|---|
| 1777333827 | 17.78° C | 54% | 1022.7 hPa | 0 mm | - | 4 W/m² | - |
| 1777333193 | 18.89° C | 51% | 1022.3 hPa | 0 mm | - | 10 W/m² | - |
| 1777332581 | 19.44° C | 42% | 1022.2 hPa | 0 mm | - | 16 W/m² | - |
| 1777330125 | 20.56° C | 38% | 1022 hPa | 0 mm | - | 56 W/m² | - |
| 1777325829 | 21.67° C | 36% | 1022.2 hPa | 0 mm | - | 193 W/m² | - |
| 1777324601 | 21.11° C | 38% | 1022.2 hPa | 0 mm | - | 246 W/m² | - |
| 1777322147 | 21.67° C | 39% | 1022.3 hPa | 0 mm | - | 361 W/m² | - |
| 1777320920 | 21.11° C | 40% | 1022.2 hPa | 0 mm | - | 417 W/m² | - |
| 1777315396 | 20° C | 43% | 1022 hPa | 0 mm | - | 611 W/m² | - |
| 1777314169 | 20.56° C | 43% | 1022.4 hPa | 0 mm | - | 641 W/m² | - |
| 1777309563 | 18.89° C | 50% | 1023.3 hPa | 0 mm | - | 696 W/m² | - |
| 1777308947 | 18.33° C | 51% | 1023.5 hPa | 0 mm | - | 692 W/m² | - |
| 1777308333 | 20° C | 49% | 1023.2 hPa | 0 mm | - | 696 W/m² | - |
| 1777307743 | 17.78° C | 51% | 1023.3 hPa | 0 mm | - | 692 W/m² | - |
| 1777305878 | 18.33° C | 51% | 1023.5 hPa | 0 mm | - | 681 W/m² | - |
| 1777303461 | 16.67° C | 61% | 1023.5 hPa | 0 mm | - | 631 W/m² | - |
| 1777302808 | 16.67° C | 60% | 1023.7 hPa | 0 mm | - | 614 W/m² | - |
| 1777299124 | 14.44° C | 71% | 1023.7 hPa | 0 mm | - | 493 W/m² | - |
| 1777296689 | 12.22° C | 77% | 1023.4 hPa | 0 mm | - | 385 W/m² | - |
| 1777293601 | 10.56° C | 82% | 1023.2 hPa | 0 mm | - | 214 W/m² | - |
| 1777292374 | 9.44° C | 87% | 1022.9 hPa | 0 mm | - | 171 W/m² | - |
| 1777288690 | 6.11° C | 96% | 1022.5 hPa | 0 mm | - | 28 W/m² | - |
| 1777284393 | 4.44° C | 93% | 1021.9 hPa | 0 mm | - | 1 W/m² | - |
| 1777283469 | 6.67° C | 93% | 1021.8 hPa | 0 mm | - | 0 W/m² | - |
| 1777282242 | 4.44° C | 93% | 1021.9 hPa | 0 mm | - | 0 W/m² | - |
* Rain latest hour (hover to see other rain measurements)
** Current wind speed in m/s (hover to see current wind gust speed)